Time;durP1;ratioP1;P1;durP2;ratioP2;P2;SDS_P1;SDS_P2;PMS_P1;PMS_P2;Temp;Humidity;BMP_temperature;BMP_pressure;BME280_temperature;BME280_humidity;BME280_pressure;Samples;Min_cycle;Max_cycle;Signal;HPM_P1;HPM_P2
2023/04/18 00:01:57;;;;;;;;;;;;;;;8.94;57.56;100243.06;105749;1258;60609;-72
2023/04/18 00:04:26;;;;;;;;;;;;;;;8.92;57.38;100237.48;105831;1254;75234;-74
2023/04/18 00:06:55;;;;;;;;;;;;;;;8.91;57.61;100236.73;105689;1257;68190;-70
2023/04/18 00:09:24;;;;;;;;;;;;;;;8.90;57.48;100233.95;105194;1256;73510;-72
2023/04/18 00:11:52;;;;;;;;;;;;;;;8.90;57.21;100236.85;105303;1256;60460;-73
2023/04/18 00:14:21;;;;;;;;;;;;;;;8.90;57.48;100235.82;105808;1258;60669;-72
2023/04/18 00:16:50;;;;;;;;;;;;;;;8.90;57.67;100234.79;105729;1258;75646;-73
2023/04/18 00:19:19;;;;;;;;;;;;;;;8.88;57.59;100229.90;105634;1256;69500;-70
2023/04/18 00:21:48;;;;;;;;;;;;;;;8.87;57.89;100231.48;105349;1259;74341;-72
2023/04/18 00:24:16;;;;;;;;;;;;;;;8.84;58.02;100230.92;105477;1258;60518;-73
2023/04/18 00:26:45;;;;;;;;;;;;;;;8.82;58.23;100229.67;105205;1255;60713;-70
2023/04/18 00:29:13;;;;;;;;;;;;;;;8.80;58.60;100232.59;105364;1256;73291;-71
2023/04/18 00:31:42;;;;;;;;;;;;;;;8.79;58.43;100230.24;105544;1256;67232;-71
2023/04/18 00:34:10;;;;;;;;;;;;;;;8.78;58.42;100232.89;105648;1259;74434;-71
2023/04/18 00:36:39;;;;;;;;;;;;;;;8.76;58.57;100232.10;105770;1256;60614;-72
2023/04/18 00:39:07;;;;;;;;;;;;;;;8.75;58.54;100231.70;105241;1256;61869;-71
2023/04/18 00:41:35;;;;;;;;;;;;;;;8.75;58.78;100235.33;105581;1256;74143;-72
2023/04/18 00:44:04;;;;;;;;;;;;;;;8.73;58.88;100231.84;105613;1255;67425;-72
2023/04/18 00:46:32;;;;;;;;;;;;;;;8.67;58.99;100233.40;105788;1258;74232;-72
2023/04/18 00:49:01;;;;;;;;;;;;;;;8.63;59.04;100234.19;105578;1255;61362;-72
2023/04/18 00:51:29;;;;;;;;;;;;;;;8.60;59.16;100234.48;105401;1256;60538;-71
2023/04/18 00:53:57;;;;;;;;;;;;;;;8.57;59.18;100231.17;105673;1256;74274;-70
2023/04/18 00:56:26;;;;;;;;;;;;;;;8.56;59.30;100230.77;105638;1256;68899;-72
2023/04/18 00:58:54;;;;;;;;;;;;;;;8.55;59.51;100229.91;105804;1258;73179;-72
2023/04/18 01:01:25;;;;;;;;;;;;;;;8.52;59.64;100227.80;105654;1256;60623;-72
2023/04/18 01:03:53;;;;;;;;;;;;;;;8.50;59.67;100226.66;105772;1256;60547;-72
2023/04/18 01:06:22;;;;;;;;;;;;;;;8.48;59.72;100226.04;105771;1256;75598;-76
2023/04/18 01:08:50;;;;;;;;;;;;;;;8.48;59.45;100223.40;105578;1261;67122;-74
2023/04/18 01:11:19;;;;;;;;;;;;;;;8.48;59.22;100227.57;105655;1261;73730;-74
2023/04/18 01:13:57;;;;;;;;;;;;;;;8.48;59.44;100231.86;105941;1256;60696;-72
2023/04/18 01:16:28;;;;;;;;;;;;;;;8.46;59.48;100228.81;105938;1258;61085;-74
2023/04/18 01:18:57;;;;;;;;;;;;;;;8.46;59.28;100225.19;105748;1257;76009;-74
2023/04/18 01:21:29;;;;;;;;;;;;;;;8.44;59.57;100225.88;105776;1261;66635;-75
2023/04/18 01:23:58;;;;;;;;;;;;;;;8.40;59.88;100227.81;105680;1262;73912;-76
2023/04/18 01:26:27;;;;;;;;;;;;;;;8.37;60.23;100227.23;105842;1256;60509;-73
2023/04/18 01:28:55;;;;;;;;;;;;;;;8.34;60.43;100223.77;105859;1256;60569;-73
2023/04/18 01:31:23;;;;;;;;;;;;;;;8.29;60.66;100224.66;105589;1256;73740;-74
2023/04/18 01:33:52;;;;;;;;;;;;;;;8.24;60.84;100220.10;105757;1258;69933;-76
2023/04/18 01:36:20;;;;;;;;;;;;;;;8.19;61.15;100219.01;105735;1260;73071;-76
2023/04/18 01:38:48;;;;;;;;;;;;;;;8.16;61.28;100223.71;105618;1258;60448;-75
2023/04/18 01:41:16;;;;;;;;;;;;;;;8.13;61.38;100222.94;105765;1257;61796;-74
2023/04/18 01:43:45;;;;;;;;;;;;;;;8.11;61.42;100226.62;105591;1256;75184;-71
2023/04/18 01:46:13;;;;;;;;;;;;;;;8.09;61.60;100225.24;105796;1256;67727;-71
2023/04/18 01:48:42;;;;;;;;;;;;;;;8.08;61.58;100227.23;105827;1256;72812;-73
2023/04/18 01:51:10;;;;;;;;;;;;;;;8.07;61.54;100224.47;105670;1255;61093;-73
2023/04/18 01:53:38;;;;;;;;;;;;;;;8.06;61.47;100223.90;105707;1260;61101;-75
2023/04/18 01:56:10;;;;;;;;;;;;;;;8.06;61.53;100222.86;105845;1256;74831;-76
2023/04/18 01:58:42;;;;;;;;;;;;;;;8.05;61.41;100220.18;105726;1256;69115;-76
2023/04/18 02:01:12;;;;;;;;;;;;;;;8.04;61.68;100218.37;105691;1255;74103;-75
2023/04/18 02:03:43;;;;;;;;;;;;;;;8.03;61.79;100218.54;105737;1261;60929;-74
2023/04/18 02:06:12;;;;;;;;;;;;;;;8.00;61.98;100214.08;105879;1255;60468;-73
2023/04/18 02:08:41;;;;;;;;;;;;;;;7.98;62.22;100214.43;105652;1256;74978;-72
2023/04/18 02:11:10;;;;;;;;;;;;;;;7.95;62.30;100209.14;105657;1256;67082;-73
2023/04/18 02:13:39;;;;;;;;;;;;;;;7.92;62.32;100211.66;105608;1256;71949;-71
2023/04/18 02:16:11;;;;;;;;;;;;;;;7.92;62.48;100210.73;105692;1256;60544;-72
2023/04/18 02:18:41;;;;;;;;;;;;;;;7.90;62.58;100210.92;105617;1256;60964;-71
2023/04/18 02:21:10;;;;;;;;;;;;;;;7.88;62.45;100210.88;105674;1255;74063;-73
2023/04/18 02:23:38;;;;;;;;;;;;;;;7.86;62.77;100209.17;105904;1256;69570;-76
2023/04/18 02:26:07;;;;;;;;;;;;;;;7.84;62.81;100211.05;105917;1256;73192;-74
2023/04/18 02:28:37;;;;;;;;;;;;;;;7.83;62.79;100211.54;105694;1256;60516;-73
2023/04/18 02:31:13;;;;;;;;;;;;;;;7.82;62.76;100210.06;105702;1256;61599;-72
2023/04/18 02:33:42;;;;;;;;;;;;;;;7.81;62.90;100211.53;105870;1255;72855;-73
2023/04/18 02:36:13;;;;;;;;;;;;;;;7.79;63.00;100211.91;105687;1260;68209;-74
2023/04/18 02:38:43;;;;;;;;;;;;;;;7.79;62.94;100210.46;105827;1256;72344;-71
2023/04/18 02:41:14;;;;;;;;;;;;;;;7.78;62.84;100209.04;105714;1256;60513;-72
2023/04/18 02:43:42;;;;;;;;;;;;;;;7.77;62.94;100208.09;105700;1257;60757;-74
2023/04/18 02:46:10;;;;;;;;;;;;;;;7.77;62.97;100209.85;105592;1260;74395;-71
2023/04/18 02:48:38;;;;;;;;;;;;;;;7.75;63.19;100212.33;105523;1260;70175;-70
2023/04/18 02:51:08;;;;;;;;;;;;;;;7.73;63.11;100210.30;105368;1255;75010;-70
2023/04/18 02:53:37;;;;;;;;;;;;;;;7.72;63.23;100210.86;105278;1261;60537;-71
2023/04/18 02:56:07;;;;;;;;;;;;;;;7.70;63.29;100212.60;105220;1256;60448;-73
2023/04/18 02:58:55;;;;;;;;;;;;;;;7.67;63.50;100208.52;105474;1258;75413;-68
2023/04/18 03:01:47;;;;;;;;;;;;;;;7.66;63.64;100209.48;105260;1260;69503;-71
2023/04/18 03:04:18;;;;;;;;;;;;;;;7.62;63.66;100207.77;105733;1256;72979;-70
2023/04/18 03:07:07;;;;;;;;;;;;;;;7.61;63.72;100207.45;105340;1256;60481;-71
2023/04/18 03:09:36;;;;;;;;;;;;;;;7.60;63.91;100209.30;105390;1256;60721;-69
2023/04/18 03:12:17;;;;;;;;;;;;;;;7.59;63.99;100207.66;105362;1255;75714;-71
2023/04/18 03:14:45;;;;;;;;;;;;;;;7.57;64.08;100203.04;105333;1258;69119;-70
2023/04/18 03:17:14;;;;;;;;;;;;;;;7.56;64.25;100206.95;105404;1258;73293;-71
2023/04/18 03:19:46;;;;;;;;;;;;;;;7.55;64.19;100208.06;105747;1258;60589;-71
2023/04/18 03:22:15;;;;;;;;;;;;;;;7.54;64.42;100208.18;105436;1254;60540;-71
2023/04/18 03:24:50;;;;;;;;;;;;;;;7.54;64.48;100211.81;105727;1256;75440;-74
2023/04/18 03:27:19;;;;;;;;;;;;;;;7.53;64.49;100209.81;105713;1255;67427;-70
2023/04/18 03:29:47;;;;;;;;;;;;;;;7.53;64.64;100213.16;105211;1256;73330;-71
2023/04/18 03:32:17;;;;;;;;;;;;;;;7.54;64.69;100213.51;105388;1256;60529;-72
2023/04/18 03:34:45;;;;;;;;;;;;;;;7.54;64.81;100220.25;105751;1255;60633;-71
2023/04/18 03:37:13;;;;;;;;;;;;;;;7.54;64.78;100218.08;105650;1261;74047;-72
2023/04/18 03:39:45;;;;;;;;;;;;;;;7.55;64.73;100222.44;105761;1259;67688;-74
2023/04/18 03:42:13;;;;;;;;;;;;;;;7.55;64.68;100221.81;105601;1260;74226;-72
2023/04/18 03:44:41;;;;;;;;;;;;;;;7.56;64.75;100221.44;105619;1260;60368;-74
2023/04/18 03:47:09;;;;;;;;;;;;;;;7.56;64.97;100223.88;105776;1256;60416;-74
2023/04/18 03:49:39;;;;;;;;;;;;;;;7.56;64.83;100217.24;105735;1254;74701;-74
2023/04/18 03:52:08;;;;;;;;;;;;;;;7.56;64.96;100217.73;105628;1256;68590;-72
2023/04/18 03:54:37;;;;;;;;;;;;;;;7.57;65.05;100218.98;105665;1254;72479;-73
2023/04/18 03:57:05;;;;;;;;;;;;;;;7.58;65.02;100218.27;105815;1260;61314;-73
2023/04/18 03:59:35;;;;;;;;;;;;;;;7.59;65.07;100217.30;105735;1256;60797;-78
2023/04/18 04:02:03;;;;;;;;;;;;;;;7.61;64.97;100219.55;105453;1262;75503;-77
2023/04/18 04:04:32;;;;;;;;;;;;;;;7.62;65.01;100217.62;105647;1256;69125;-76
2023/04/18 04:07:00;;;;;;;;;;;;;;;7.62;64.95;100214.66;105706;1256;72967;-75
2023/04/18 04:09:29;;;;;;;;;;;;;;;7.62;65.10;100218.19;105651;1260;61352;-74
2023/04/18 04:11:57;;;;;;;;;;;;;;;7.62;65.24;100214.98;105584;1259;60333;-75
2023/04/18 04:14:26;;;;;;;;;;;;;;;7.61;65.49;100214.78;105796;1256;74244;-74
2023/04/18 04:16:54;;;;;;;;;;;;;;;7.61;65.51;100217.09;105700;1256;69886;-74
2023/04/18 04:19:23;;;;;;;;;;;;;;;7.63;65.69;100214.14;105672;1256;74245;-73
2023/04/18 04:22:13;;;;;;;;;;;;;;;7.65;65.85;100214.20;105284;1260;60541;-74
2023/04/18 04:24:41;;;;;;;;;;;;;;;7.68;65.91;100213.28;105684;1255;61709;-71
2023/04/18 04:27:12;;;;;;;;;;;;;;;7.70;66.00;100217.67;105693;1256;75457;-71
2023/04/18 04:29:42;;;;;;;;;;;;;;;7.71;65.72;100214.70;105683;1260;69494;-71
2023/04/18 04:32:11;;;;;;;;;;;;;;;7.73;65.94;100216.03;105573;1261;74125;-73
2023/04/18 04:34:42;;;;;;;;;;;;;;;7.77;65.96;100215.67;105550;1256;60907;-70
2023/04/18 04:37:17;;;;;;;;;;;;;;;7.81;65.90;100213.67;105421;1256;60605;-72
2023/04/18 04:39:59;;;;;;;;;;;;;;;7.86;65.86;100214.15;105557;1258;75427;-72
2023/04/18 04:43:00;;;;;;;;;;;;;;;7.91;65.39;100217.41;105635;1255;69476;-73
2023/04/18 04:45:33;;;;;;;;;;;;;;;7.96;65.35;100217.45;105252;1256;74037;-72
2023/04/18 04:48:04;;;;;;;;;;;;;;;8.00;65.42;100215.94;105640;1256;60413;-74
2023/04/18 04:50:37;;;;;;;;;;;;;;;8.04;65.55;100214.03;105625;1259;60723;-73
2023/04/18 04:53:05;;;;;;;;;;;;;;;8.09;65.21;100217.66;105258;1256;75207;-72
2023/04/18 04:55:33;;;;;;;;;;;;;;;8.12;65.23;100221.84;105821;1256;68637;-71
2023/04/18 04:58:02;;;;;;;;;;;;;;;8.16;65.10;100223.61;105443;1256;72326;-73
2023/04/18 05:00:56;;;;;;;;;;;;;;;8.21;64.83;100229.77;105653;1258;60477;-71
2023/04/18 05:03:25;;;;;;;;;;;;;;;8.25;64.72;100229.79;105783;1256;61460;-71
2023/04/18 05:05:53;;;;;;;;;;;;;;;8.28;64.82;100233.06;105263;1256;74213;-70
2023/04/18 05:08:22;;;;;;;;;;;;;;;8.32;64.45;100237.00;105257;1256;68725;-70
2023/04/18 05:10:50;;;;;;;;;;;;;;;8.35;64.14;100240.85;105262;1255;73229;-72
2023/04/18 05:13:19;;;;;;;;;;;;;;;8.38;64.29;100240.63;105774;1259;60668;-71
2023/04/18 05:15:47;;;;;;;;;;;;;;;8.42;64.00;100245.52;105219;1260;60406;-74
2023/04/18 05:18:16;;;;;;;;;;;;;;;8.47;64.29;100248.40;105668;1258;75486;-74
2023/04/18 05:20:44;;;;;;;;;;;;;;;8.53;64.08;100245.31;105779;1256;69577;-72
2023/04/18 05:23:12;;;;;;;;;;;;;;;8.60;63.83;100247.39;105561;1260;72853;-71
2023/04/18 05:25:40;;;;;;;;;;;;;;;8.65;63.52;100248.90;105646;1256;60466;-74
2023/04/18 05:28:09;;;;;;;;;;;;;;;8.72;63.50;100249.67;105697;1258;60462;-76
2023/04/18 05:30:38;;;;;;;;;;;;;;;8.79;63.62;100249.07;105750;1255;75338;-69
2023/04/18 05:33:06;;;;;;;;;;;;;;;8.86;63.42;100246.64;105383;1256;67786;-71
2023/04/18 05:35:35;;;;;;;;;;;;;;;8.93;63.13;100247.00;105674;1256;72567;-71
2023/04/18 05:38:03;;;;;;;;;;;;;;;9.00;62.81;100244.47;105465;1254;61625;-72
2023/04/18 05:40:31;;;;;;;;;;;;;;;9.08;62.29;100247.47;105307;1258;60435;-70
2023/04/18 05:42:59;;;;;;;;;;;;;;;9.14;62.08;100243.26;105195;1258;73915;-68
2023/04/18 05:45:27;;;;;;;;;;;;;;;9.20;61.61;100244.16;105509;1256;68213;-70
2023/04/18 05:47:56;;;;;;;;;;;;;;;9.25;61.31;100243.23;105109;1256;72503;-70
2023/04/18 05:50:24;;;;;;;;;;;;;;;9.29;61.19;100242.80;105334;1256;60523;-71
2023/04/18 05:52:53;;;;;;;;;;;;;;;9.32;61.35;100243.51;105445;1255;60889;-71
2023/04/18 05:55:21;;;;;;;;;;;;;;;9.37;61.24;100243.86;105748;1258;73513;-70
2023/04/18 05:57:49;;;;;;;;;;;;;;;9.41;61.29;100243.55;105407;1256;68381;-71
2023/04/18 06:00:18;;;;;;;;;;;;;;;9.46;61.11;100242.02;105867;1256;73321;-70
2023/04/18 06:02:45;;;;;;;;;;;;;;;9.52;61.20;100238.46;105328;1259;60679;-71
2023/04/18 06:05:14;;;;;;;;;;;;;;;9.59;60.79;100238.92;105331;1260;60741;-70
2023/04/18 06:07:42;;;;;;;;;;;;;;;9.66;60.78;100239.25;105780;1258;73497;-73
2023/04/18 06:10:12;;;;;;;;;;;;;;;9.71;60.49;100243.09;105725;1257;67582;-70
2023/04/18 06:12:40;;;;;;;;;;;;;;;9.76;60.59;100241.91;105709;1258;74439;-73
2023/04/18 06:15:09;;;;;;;;;;;;;;;9.81;60.28;100243.43;105714;1260;60397;-69
2023/04/18 06:17:38;;;;;;;;;;;;;;;9.84;60.46;100236.81;105726;1255;60473;-70
2023/04/18 06:20:08;;;;;;;;;;;;;;;9.89;60.69;100238.54;105209;1257;73411;-71
2023/04/18 06:22:36;;;;;;;;;;;;;;;9.93;60.77;100239.71;105289;1261;66935;-72
2023/04/18 06:25:04;;;;;;;;;;;;;;;9.97;61.03;100238.83;105855;1257;74530;-72
2023/04/18 06:27:33;;;;;;;;;;;;;;;10.02;60.81;100237.29;105779;1256;60871;-70
2023/04/18 06:30:03;;;;;;;;;;;;;;;10.08;60.54;100243.39;105283;1259;61349;-74
2023/04/18 06:32:31;;;;;;;;;;;;;;;10.13;60.45;100241.95;105673;1255;74332;-73
2023/04/18 06:34:59;;;;;;;;;;;;;;;10.20;60.59;100240.90;105554;1261;68088;-72
2023/04/18 06:37:28;;;;;;;;;;;;;;;10.29;60.43;100242.77;105717;1258;72274;-73
2023/04/18 06:39:56;;;;;;;;;;;;;;;10.35;60.04;100240.77;105498;1261;60447;-75
2023/04/18 06:42:24;;;;;;;;;;;;;;;10.43;59.42;100237.89;105077;1254;594015;-72
2023/04/18 06:44:54;;;;;;;;;;;;;;;10.47;58.27;100242.77;105586;1256;73355;-72
2023/04/18 06:47:22;;;;;;;;;;;;;;;10.48;57.64;100242.83;105628;1256;69142;-72
2023/04/18 06:49:50;;;;;;;;;;;;;;;10.49;57.68;100241.58;105623;1258;73001;-70
2023/04/18 06:52:18;;;;;;;;;;;;;;;10.51;57.45;100239.50;105668;1259;61071;-72
2023/04/18 06:54:46;;;;;;;;;;;;;;;10.52;57.24;100240.60;105069;1259;60442;-70
2023/04/18 06:57:14;;;;;;;;;;;;;;;10.52;57.05;100244.73;105619;1256;72467;-70
2023/04/18 06:59:42;;;;;;;;;;;;;;;10.52;56.83;100247.02;105596;1257;68863;-72
2023/04/18 07:02:10;;;;;;;;;;;;;;;10.55;57.14;100252.98;105561;1256;72823;-72
2023/04/18 07:04:38;;;;;;;;;;;;;;;10.59;56.91;100252.38;105612;1254;61139;-73
2023/04/18 07:07:06;;;;;;;;;;;;;;;10.60;56.84;100251.66;105592;1258;61813;-72
2023/04/18 07:09:35;;;;;;;;;;;;;;;10.64;56.68;100247.54;105279;1258;74840;-73
2023/04/18 07:12:03;;;;;;;;;;;;;;;10.67;56.74;100249.66;105583;1256;70058;-76
2023/04/18 07:14:31;;;;;;;;;;;;;;;10.71;56.86;100249.73;105786;1256;72732;-76
2023/04/18 07:17:01;;;;;;;;;;;;;;;10.71;56.73;100251.13;105855;1256;60506;-74
2023/04/18 07:19:30;;;;;;;;;;;;;;;10.71;56.65;100246.19;105810;1259;60602;-73
2023/04/18 07:21:59;;;;;;;;;;;;;;;10.75;56.80;100248.59;105425;1258;74727;-72
2023/04/18 07:24:28;;;;;;;;;;;;;;;10.80;56.57;100246.27;105318;1261;68485;-70
2023/04/18 07:26:56;;;;;;;;;;;;;;;10.87;56.78;100246.08;105912;1256;72862;-73
2023/04/18 07:29:24;;;;;;;;;;;;;;;10.93;56.89;100243.96;105725;1258;60843;-72
2023/04/18 07:31:52;;;;;;;;;;;;;;;11.01;57.18;100242.06;105835;1255;60519;-71
2023/04/18 07:34:21;;;;;;;;;;;;;;;11.09;57.24;100240.56;105247;1256;74315;-71
2023/04/18 07:36:50;;;;;;;;;;;;;;;11.20;56.62;100243.52;105411;1261;66623;-71
2023/04/18 07:39:20;;;;;;;;;;;;;;;11.30;56.31;100242.14;105445;1259;71996;-69
2023/04/18 07:41:48;;;;;;;;;;;;;;;11.37;55.94;100240.98;105493;1256;62185;-71
2023/04/18 07:44:17;;;;;;;;;;;;;;;11.43;55.88;100243.79;105140;1258;60455;-70
2023/04/18 07:46:46;;;;;;;;;;;;;;;11.51;55.78;100236.44;105467;1256;74065;-73
2023/04/18 07:49:14;;;;;;;;;;;;;;;11.59;55.64;100238.09;105487;1259;67937;-72
2023/04/18 07:51:43;;;;;;;;;;;;;;;11.67;55.57;100236.99;105461;1256;73970;-72
2023/04/18 07:54:11;;;;;;;;;;;;;;;11.76;55.32;100240.40;105897;1259;61132;-72
2023/04/18 07:56:39;;;;;;;;;;;;;;;11.86;55.06;100239.39;105863;1258;61235;-73
2023/04/18 07:59:07;;;;;;;;;;;;;;;11.94;54.87;100236.08;105781;1259;74718;-73
2023/04/18 08:01:36;;;;;;;;;;;;;;;12.04;54.50;100234.27;105882;1254;69504;-73
2023/04/18 08:04:05;;;;;;;;;;;;;;;12.13;54.79;100231.84;105583;1254;74916;-74
2023/04/18 08:06:33;;;;;;;;;;;;;;;12.23;54.57;100235.60;105918;1259;60941;-74
2023/04/18 08:09:04;;;;;;;;;;;;;;;12.28;54.41;100230.27;105483;1258;60437;-77
2023/04/18 08:11:32;;;;;;;;;;;;;;;12.36;54.45;100232.55;105790;1256;73641;-73
2023/04/18 08:14:00;;;;;;;;;;;;;;;12.43;54.24;100227.63;105075;1256;69399;-75
2023/04/18 08:16:30;;;;;;;;;;;;;;;12.53;53.70;100226.10;105346;1256;74344;-73
2023/04/18 08:18:59;;;;;;;;;;;;;;;12.62;53.20;100224.17;105429;1255;60834;-70
2023/04/18 08:21:28;;;;;;;;;;;;;;;12.70;52.69;100220.98;105251;1259;60461;-74
2023/04/18 08:23:56;;;;;;;;;;;;;;;12.74;52.09;100221.41;105734;1256;75091;-74
2023/04/18 08:26:24;;;;;;;;;;;;;;;12.73;51.99;100218.64;105392;1255;68801;-73
2023/04/18 08:28:52;;;;;;;;;;;;;;;12.79;51.73;100217.36;105666;1256;72969;-73
2023/04/18 08:31:21;;;;;;;;;;;;;;;12.82;51.03;100217.30;105835;1256;60614;-76
2023/04/18 08:33:49;;;;;;;;;;;;;;;12.85;50.86;100215.67;105835;1254;60912;-73
2023/04/18 08:36:17;;;;;;;;;;;;;;;12.89;50.94;100212.73;105269;1256;73689;-74
2023/04/18 08:38:45;;;;;;;;;;;;;;;12.91;50.88;100210.55;105925;1256;67910;-73
2023/04/18 08:41:13;;;;;;;;;;;;;;;12.95;50.96;100204.92;105847;1256;73864;-74
2023/04/18 08:43:42;;;;;;;;;;;;;;;13.02;51.19;100206.35;105790;1260;60500;-74
2023/04/18 08:46:10;;;;;;;;;;;;;;;13.08;51.27;100204.65;105833;1261;61924;-76
2023/04/18 08:48:38;;;;;;;;;;;;;;;13.17;51.24;100204.51;105770;1256;74901;-72
2023/04/18 08:51:08;;;;;;;;;;;;;;;13.25;51.17;100203.06;105850;1256;67658;-73
2023/04/18 08:53:38;;;;;;;;;;;;;;;13.29;50.57;100200.58;105822;1259;72583;-72
2023/04/18 08:56:09;;;;;;;;;;;;;;;13.32;50.09;100202.02;105464;1258;63041;-70
2023/04/18 08:58:37;;;;;;;;;;;;;;;13.35;49.32;100197.97;105825;1256;60526;-70
2023/04/18 09:01:06;;;;;;;;;;;;;;;13.36;48.96;100196.44;105742;1256;73300;-73
2023/04/18 09:03:36;;;;;;;;;;;;;;;13.36;49.40;100197.40;105662;1256;67958;-72
2023/04/18 09:06:07;;;;;;;;;;;;;;;13.38;49.50;100196.34;105329;1262;72593;-72
2023/04/18 09:08:35;;;;;;;;;;;;;;;13.42;49.46;100194.11;105910;1256;60583;-73
2023/04/18 09:11:41;;;;;;;;;;;;;;;13.43;48.95;100191.19;105778;1258;60747;-72
2023/04/18 09:14:16;;;;;;;;;;;;;;;13.38;47.47;100193.48;105002;1262;73785;-73
2023/04/18 09:16:49;;;;;;;;;;;;;;;13.37;47.33;100190.39;105261;1256;69067;-73
2023/04/18 09:19:17;;;;;;;;;;;;;;;13.33;46.94;100184.34;105245;1259;73659;-72
2023/04/18 09:21:47;;;;;;;;;;;;;;;13.31;47.00;100178.27;105867;1260;60469;-73
2023/04/18 09:24:22;;;;;;;;;;;;;;;13.32;47.05;100184.34;105874;1256;61890;-73
2023/04/18 09:26:55;;;;;;;;;;;;;;;13.35;47.27;100180.30;105778;1260;75956;-73
2023/04/18 09:29:40;;;;;;;;;;;;;;;13.34;46.33;100181.80;105417;1256;66830;-71
2023/04/18 09:32:08;;;;;;;;;;;;;;;13.34;46.46;100181.16;105811;1260;73197;-72
2023/04/18 09:34:40;;;;;;;;;;;;;;;13.33;46.58;100184.56;105826;1256;62068;-72
2023/04/18 09:37:09;;;;;;;;;;;;;;;13.32;47.08;100185.15;105382;1256;61573;-72
2023/04/18 09:39:38;;;;;;;;;;;;;;;13.34;47.35;100182.45;105786;1256;73694;-72
2023/04/18 09:42:06;;;;;;;;;;;;;;;13.34;47.64;100179.48;105286;1258;67589;-72
2023/04/18 09:44:36;;;;;;;;;;;;;;;13.36;48.07;100181.23;105662;1260;73545;-74
2023/04/18 09:47:05;;;;;;;;;;;;;;;13.39;48.13;100180.46;105714;1256;60582;-71
2023/04/18 09:49:33;;;;;;;;;;;;;;;13.44;48.46;100180.89;105781;1256;60412;-71
2023/04/18 09:52:02;;;;;;;;;;;;;;;13.51;48.57;100178.57;105777;1258;74507;-71
2023/04/18 09:54:30;;;;;;;;;;;;;;;13.58;48.91;100177.28;105789;1256;69709;-70
2023/04/18 09:56:58;;;;;;;;;;;;;;;13.63;49.03;100175.00;105876;1254;74370;-70
2023/04/18 09:59:32;;;;;;;;;;;;;;;13.69;48.82;100167.27;105745;1255;60927;-71
2023/04/18 10:02:01;;;;;;;;;;;;;;;13.77;48.59;100169.11;105295;1260;60671;-70
2023/04/18 10:04:31;;;;;;;;;;;;;;;13.83;47.87;100167.90;105137;1260;75578;-75
2023/04/18 10:06:59;;;;;;;;;;;;;;;13.87;47.42;100168.09;106241;1258;68541;-73
2023/04/18 10:09:30;;;;;;;;;;;;;;;13.89;46.87;100168.44;105216;1256;74482;-72
2023/04/18 10:11:58;;;;;;;;;;;;;;;13.90;47.05;100170.06;105955;1256;61336;-74
2023/04/18 10:14:26;;;;;;;;;;;;;;;13.91;46.36;100162.38;105786;1259;60346;-73
2023/04/18 10:16:56;;;;;;;;;;;;;;;13.93;45.60;100162.09;105444;1261;75981;-78
2023/04/18 10:19:24;;;;;;;;;;;;;;;13.96;44.31;100159.34;105662;1255;68045;-74
2023/04/18 10:21:59;;;;;;;;;;;;;;;13.95;43.17;100160.00;105810;1257;74423;-71
2023/04/18 10:24:43;;;;;;;;;;;;;;;13.97;43.86;100167.63;105530;1256;61615;-71
2023/04/18 10:27:12;;;;;;;;;;;;;;;14.00;43.81;100160.89;105778;1256;60926;-71
2023/04/18 10:29:49;;;;;;;;;;;;;;;14.00;44.22;100156.73;105568;1258;73441;-70
2023/04/18 10:32:18;;;;;;;;;;;;;;;14.04;44.17;100158.59;105838;1259;68053;-73
2023/04/18 10:34:47;;;;;;;;;;;;;;;14.02;44.39;100158.67;105706;1256;72635;-72
2023/04/18 10:37:16;;;;;;;;;;;;;;;13.93;44.89;100159.00;105740;1256;61525;-71
2023/04/18 10:40:06;;;;;;;;;;;;;;;13.88;45.12;100160.26;105732;1255;60888;-71
2023/04/18 10:42:50;;;;;;;;;;;;;;;13.87;45.61;100158.95;105711;1261;74395;-72
2023/04/18 10:45:19;;;;;;;;;;;;;;;13.89;45.63;100158.48;105629;1256;68863;-74
2023/04/18 10:48:07;;;;;;;;;;;;;;;13.88;45.62;100156.38;105790;1257;72723;-72
2023/04/18 10:50:55;;;;;;;;;;;;;;;13.90;45.99;100152.55;105489;1259;61614;-72
2023/04/18 10:53:23;;;;;;;;;;;;;;;13.89;46.13;100155.45;105439;1260;62307;-73
2023/04/18 10:55:54;;;;;;;;;;;;;;;13.88;46.40;100154.48;104780;1260;72946;-69
2023/04/18 10:58:22;;;;;;;;;;;;;;;13.90;45.80;100148.86;104857;1262;69472;-71
2023/04/18 11:00:50;;;;;;;;;;;;;;;13.93;45.94;100157.00;105295;1264;72591;-72
2023/04/18 11:03:18;;;;;;;;;;;;;;;13.95;45.99;100158.96;105441;1262;60575;-69
2023/04/18 11:05:46;;;;;;;;;;;;;;;13.95;45.93;100155.30;104955;1264;61216;-72
2023/04/18 11:08:22;;;;;;;;;;;;;;;13.96;45.82;100155.06;105404;1261;73166;-73
2023/04/18 11:10:59;;;;;;;;;;;;;;;13.98;45.54;100151.67;104821;1264;69191;-71
2023/04/18 11:13:28;;;;;;;;;;;;;;;14.00;45.90;100150.28;104901;1261;74424;-72
2023/04/18 11:15:56;;;;;;;;;;;;;;;14.05;46.18;100149.66;105422;1265;62231;-73
2023/04/18 11:18:25;;;;;;;;;;;;;;;14.09;46.13;100146.77;105016;1262;61989;-71
2023/04/18 11:20:54;;;;;;;;;;;;;;;14.11;45.71;100151.80;105116;1264;74430;-73
2023/04/18 11:23:23;;;;;;;;;;;;;;;14.11;45.83;100145.19;105253;1259;69912;-72
2023/04/18 11:25:53;;;;;;;;;;;;;;;14.12;45.99;100145.04;105159;1259;72640;-76
2023/04/18 11:28:24;;;;;;;;;;;;;;;14.09;46.00;100142.77;105685;1261;61807;-80
2023/04/18 11:30:54;;;;;;;;;;;;;;;14.07;46.08;100139.98;105228;1260;60506;-76
2023/04/18 11:33:25;;;;;;;;;;;;;;;14.01;45.84;100137.79;105088;1255;74229;-77
2023/04/18 11:35:55;;;;;;;;;;;;;;;13.94;46.36;100136.46;105316;1260;67951;-77
2023/04/18 11:38:26;;;;;;;;;;;;;;;13.95;46.72;100135.27;106237;1254;72062;-78
2023/04/18 11:40:55;;;;;;;;;;;;;;;13.95;46.82;100135.23;105958;1256;62062;-75
2023/04/18 11:43:23;;;;;;;;;;;;;;;13.94;46.62;100128.77;105805;1255;60512;-78
2023/04/18 11:45:52;;;;;;;;;;;;;;;13.93;46.82;100126.42;105296;1259;73303;-71
2023/04/18 11:48:21;;;;;;;;;;;;;;;13.91;46.87;100129.39;105479;1259;67346;-75
2023/04/18 11:50:50;;;;;;;;;;;;;;;13.89;46.80;100128.43;105420;1261;74267;-71
2023/04/18 11:53:31;;;;;;;;;;;;;;;13.89;46.69;100125.50;105188;1260;60457;-72
2023/04/18 11:55:59;;;;;;;;;;;;;;;13.88;46.90;100127.11;105267;1260;61609;-71
2023/04/18 11:58:35;;;;;;;;;;;;;;;13.86;46.59;100125.96;105608;1258;75822;-72
2023/04/18 12:01:19;;;;;;;;;;;;;;;13.85;45.70;100127.05;105510;1260;66443;-72
2023/04/18 12:04:00;;;;;;;;;;;;;;;13.86;44.85;100121.37;105408;1260;73109;-70
2023/04/18 12:06:45;;;;;;;;;;;;;;;13.86;44.33;100116.86;105394;1257;60890;-69
2023/04/18 12:09:14;;;;;;;;;;;;;;;13.89;44.09;100119.71;105429;1256;60565;-70
2023/04/18 12:11:42;;;;;;;;;;;;;;;13.91;43.91;100123.70;105350;1261;74039;-69
2023/04/18 12:14:20;;;;;;;;;;;;;;;13.92;44.09;100125.71;105333;1260;69786;-69
2023/04/18 12:16:49;;;;;;;;;;;;;;;13.88;44.73;100129.70;105355;1269;73621;-67
2023/04/18 12:19:19;;;;;;;;;;;;;;;13.81;45.42;100131.98;105451;1257;60365;-70
2023/04/18 12:21:59;;;;;;;;;;;;;;;13.73;46.22;100131.98;105368;1257;61683;-70
2023/04/18 12:24:27;;;;;;;;;;;;;;;13.64;48.02;100132.14;105343;1258;74453;-68
2023/04/18 12:26:56;;;;;;;;;;;;;;;13.50;48.42;100130.73;105192;1258;68384;-71
2023/04/18 12:29:25;;;;;;;;;;;;;;;13.43;49.25;100124.67;105411;1260;73277;-72
2023/04/18 12:31:53;;;;;;;;;;;;;;;13.35;50.14;100121.79;105379;1257;61354;-73
2023/04/18 12:34:22;;;;;;;;;;;;;;;13.28;51.50;100122.27;105337;1257;60420;-72
2023/04/18 12:36:51;;;;;;;;;;;;;;;13.25;52.17;100121.86;105597;1259;74633;-69
2023/04/18 12:39:19;;;;;;;;;;;;;;;13.16;53.56;100117.23;105450;1258;70315;-74
2023/04/18 12:41:47;;;;;;;;;;;;;;;13.05;54.29;100113.17;105128;1260;73076;-69
2023/04/18 12:44:17;;;;;;;;;;;;;;;12.91;55.70;100115.40;105563;1255;60373;-69
2023/04/18 12:46:45;;;;;;;;;;;;;;;12.77;56.94;100117.91;105665;1258;61245;-72